Time;durP1;ratioP1;P1;durP2;ratioP2;P2;SDS_P1;SDS_P2;PMS_P1;PMS_P2;Temp;Humidity;BMP_temperature;BMP_pressure;BME280_temperature;BME280_humidity;BME280_pressure;Samples;Min_cycle;Max_cycle;Signal;HPM_P1;HPM_P2
2022/03/04 06:00:31;;;;;;;20.20;18.10;;;3.90;97.20;;;;;;1723410;28;20237;-86
2022/03/04 06:01:23;;;;;;;19.35;17.45;;;3.90;97.20;;;;;;1723454;28;20206;-85
2022/03/04 06:02:14;;;;;;;20.45;18.40;;;3.90;97.20;;;;;;1723795;28;20227;-86
2022/03/04 06:03:06;;;;;;;20.77;18.60;;;3.90;97.20;;;;;;1723769;28;20261;-86
2022/03/04 06:03:56;;;;;;;19.67;17.70;;;3.90;97.20;;;;;;1723749;28;20340;-86
2022/03/04 06:04:48;;;;;;;21.87;18.50;;;3.90;97.20;;;;;;1723687;28;20229;-86
2022/03/04 06:05:39;;;;;;;18.92;16.92;;;3.90;97.20;;;;;;1723642;28;20260;-86
2022/03/04 06:06:31;;;;;;;18.43;16.63;;;3.90;97.20;;;;;;1723362;28;20224;-86
2022/03/04 06:07:21;;;;;;;20.00;17.88;;;3.90;97.20;;;;;;1723185;28;20200;-85
2022/03/04 06:08:13;;;;;;;20.23;18.13;;;3.90;97.20;;;;;;1722886;28;20194;-86
2022/03/04 06:09:04;;;;;;;19.85;16.85;;;3.90;97.20;;;;;;1723739;28;20240;-85
2022/03/04 06:09:55;;;;;;;18.73;16.83;;;3.90;97.20;;;;;;1723274;28;20197;-86
2022/03/04 06:10:46;;;;;;;19.88;17.88;;;3.90;97.20;;;;;;1723440;28;20229;-85
2022/03/04 06:11:38;;;;;;;19.87;17.90;;;3.90;97.20;;;;;;1723299;28;20712;-85
2022/03/04 06:12:29;;;;;;;18.15;16.50;;;3.90;97.20;;;;;;1723622;28;20451;-86
2022/03/04 06:13:20;;;;;;;20.40;18.40;;;3.90;97.20;;;;;;1723246;28;20291;-86
2022/03/04 06:14:11;;;;;;;20.25;18.15;;;3.90;97.20;;;;;;1723177;28;20209;-86
2022/03/04 06:15:03;;;;;;;21.10;19.00;;;3.80;97.20;;;;;;1723298;28;20201;-85
2022/03/04 06:15:55;;;;;;;20.02;17.95;;;3.80;97.20;;;;;;1723524;28;20216;-86
2022/03/04 06:16:47;;;;;;;19.40;17.50;;;3.80;97.20;;;;;;1723348;28;20225;-86
2022/03/04 06:17:39;;;;;;;20.20;18.17;;;3.80;97.20;;;;;;1722849;28;20194;-86
2022/03/04 06:18:30;;;;;;;18.95;17.20;;;3.80;97.20;;;;;;1723014;28;20197;-86
2022/03/04 06:19:21;;;;;;;19.30;17.42;;;3.80;97.20;;;;;;1723414;28;20201;-86
2022/03/04 06:20:13;;;;;;;18.87;16.97;;;3.80;97.20;;;;;;1723348;28;20233;-86
2022/03/04 06:21:04;;;;;;;19.23;17.33;;;3.70;97.20;;;;;;1723253;28;20197;-85
2022/03/04 06:21:56;;;;;;;18.27;16.38;;;3.70;97.20;;;;;;1723362;28;20202;-86
2022/03/04 06:22:46;;;;;;;19.38;17.48;;;3.70;97.20;;;;;;1723069;28;20205;-86
2022/03/04 06:23:39;;;;;;;19.20;17.20;;;3.70;97.20;;;;;;1723023;28;20204;-86
2022/03/04 06:24:31;;;;;;;18.35;16.55;;;3.70;97.20;;;;;;1723725;28;20963;-86
2022/03/04 06:25:23;;;;;;;18.92;17.02;;;3.70;97.20;;;;;;1723029;28;20743;-86
2022/03/04 06:26:13;;;;;;;21.08;17.70;;;3.70;97.20;;;;;;1723100;28;20485;-85
2022/03/04 06:27:05;;;;;;;18.83;16.87;;;3.70;97.20;;;;;;1722881;28;20284;-86
2022/03/04 06:27:58;;;;;;;18.52;16.67;;;3.70;97.20;;;;;;1718106;28;20585;-86
2022/03/04 06:28:50;;;;;;;17.92;16.13;;;3.70;97.20;;;;;;1716160;28;20265;-86
2022/03/04 06:29:41;;;;;;;19.20;17.30;;;3.70;97.20;;;;;;1716501;28;20202;-86
2022/03/04 06:30:36;;;;;;;19.88;17.88;;;3.70;97.20;;;;;;1716048;28;20214;-86
2022/03/04 06:31:28;;;;;;;19.67;17.58;;;3.70;97.20;;;;;;1716373;28;20214;-86
2022/03/04 06:32:20;;;;;;;19.42;17.63;;;3.70;97.20;;;;;;1716467;28;20317;-86
2022/03/04 06:34:21;;;;;;;20.13;18.23;;;3.70;97.20;;;;;;1716413;28;20578;-86
2022/03/04 06:35:11;;;;;;;19.80;17.73;;;3.70;97.20;;;;;;1716120;28;20215;-86
2022/03/04 06:36:05;;;;;;;20.90;18.90;;;3.70;97.20;;;;;;1716499;28;20300;-86
2022/03/04 06:36:56;;;;;;;21.60;19.30;;;3.70;97.20;;;;;;1716102;28;20272;-86
2022/03/04 06:37:48;;;;;;;20.10;18.10;;;3.70;97.20;;;;;;1719583;28;20194;-86
2022/03/04 06:38:42;;;;;;;20.02;18.02;;;3.70;97.20;;;;;;1722859;28;20220;-86
2022/03/04 06:39:33;;;;;;;20.45;18.13;;;3.70;97.20;;;;;;1722901;28;20573;-86
2022/03/04 06:40:25;;;;;;;21.10;19.00;;;3.70;97.20;;;;;;1722969;28;20656;-86
2022/03/04 06:41:16;;;;;;;22.75;19.10;;;3.70;97.20;;;;;;1722840;28;20205;-86
2022/03/04 06:42:07;;;;;;;20.33;18.27;;;3.70;97.20;;;;;;1723259;28;20217;-86
2022/03/04 06:42:59;;;;;;;20.40;18.43;;;3.70;97.20;;;;;;1723144;28;20280;-86
2022/03/04 06:43:51;;;;;;;21.50;18.83;;;3.70;97.20;;;;;;1722995;28;20520;-86
2022/03/04 06:44:41;;;;;;;20.33;18.20;;;3.70;97.20;;;;;;1723097;28;20204;-86
2022/03/04 06:45:33;;;;;;;20.63;18.43;;;3.70;97.20;;;;;;1722868;28;20203;-86
2022/03/04 06:46:25;;;;;;;20.20;18.20;;;3.70;97.20;;;;;;1723058;28;20212;-86
2022/03/04 06:47:18;;;;;;;20.70;18.60;;;3.70;97.20;;;;;;1723064;28;20197;-86
2022/03/04 06:48:09;;;;;;;24.25;19.70;;;3.70;97.20;;;;;;1722167;28;20710;-86
2022/03/04 06:49:00;;;;;;;21.48;19.17;;;3.80;97.20;;;;;;1723192;28;20201;-86
2022/03/04 06:49:51;;;;;;;26.60;20.88;;;3.80;97.20;;;;;;1723129;28;20239;-86
2022/03/04 06:50:43;;;;;;;24.60;19.33;;;3.80;97.20;;;;;;1722819;28;20221;-86
2022/03/04 06:51:35;;;;;;;27.70;19.60;;;3.80;97.20;;;;;;1723400;28;20444;-86
2022/03/04 06:52:25;;;;;;;24.80;20.00;;;3.80;97.20;;;;;;1723198;28;20224;-86
2022/03/04 06:53:17;;;;;;;23.60;20.70;;;3.90;97.20;;;;;;1722803;28;20201;-86
2022/03/04 06:54:08;;;;;;;25.75;20.00;;;3.90;97.20;;;;;;1722973;28;20578;-86
2022/03/04 06:55:00;;;;;;;22.67;20.27;;;3.90;97.20;;;;;;1722566;28;20574;-86
2022/03/04 06:55:51;;;;;;;22.23;19.92;;;3.90;97.20;;;;;;1723047;28;20209;-86
2022/03/04 06:56:42;;;;;;;20.88;18.98;;;4.00;97.20;;;;;;1722594;28;20259;-86
2022/03/04 06:57:34;;;;;;;20.63;18.52;;;4.00;97.20;;;;;;1720688;28;20212;-85
2022/03/04 06:58:26;;;;;;;19.85;17.80;;;4.00;97.20;;;;;;1715758;28;20580;-86
2022/03/04 06:59:17;;;;;;;22.10;19.42;;;4.00;97.20;;;;;;1716208;28;20627;-86
2022/03/04 07:00:10;;;;;;;24.77;20.00;;;4.00;97.20;;;;;;1715612;28;20650;-86
2022/03/04 07:01:02;;;;;;;33.92;20.33;;;4.00;97.20;;;;;;1716245;28;20209;-86
2022/03/04 07:01:54;;;;;;;27.33;19.40;;;4.00;97.20;;;;;;1716013;28;20205;-86
2022/03/04 07:02:46;;;;;;;42.88;18.60;;;4.00;97.20;;;;;;1716050;28;20202;-86
2022/03/04 07:03:38;;;;;;;24.65;19.05;;;4.00;97.20;;;;;;1716198;28;20210;-85
2022/03/04 07:04:28;;;;;;;21.08;18.83;;;4.10;97.20;;;;;;1716324;28;20201;-86
2022/03/04 07:05:21;;;;;;;25.90;19.83;;;4.10;97.20;;;;;;1716343;28;20288;-86
2022/03/04 07:06:12;;;;;;;25.33;19.33;;;4.10;97.20;;;;;;1716234;28;20657;-86
2022/03/04 07:07:04;;;;;;;22.50;20.20;;;4.10;97.20;;;;;;1716090;28;20226;-86
2022/03/04 07:07:55;;;;;;;23.98;19.17;;;4.10;97.20;;;;;;1720376;28;20444;-86
2022/03/04 07:08:47;;;;;;;22.80;19.50;;;4.10;97.20;;;;;;1722739;28;20208;-86
2022/03/04 07:09:38;;;;;;;28.23;19.20;;;4.10;97.20;;;;;;1722892;28;20440;-86
2022/03/04 07:10:29;;;;;;;21.97;18.83;;;4.20;97.20;;;;;;1722533;28;20215;-86
2022/03/04 07:11:20;;;;;;;21.08;18.33;;;4.20;97.20;;;;;;1722615;28;20216;-86
2022/03/04 07:12:12;;;;;;;20.47;18.33;;;4.30;97.20;;;;;;1722548;28;20215;-86
2022/03/04 07:13:03;;;;;;;23.23;19.33;;;4.30;97.20;;;;;;1722989;28;20676;-86
2022/03/04 07:13:54;;;;;;;23.63;20.05;;;4.30;97.20;;;;;;1722731;28;20227;-86
2022/03/04 07:14:46;;;;;;;21.33;19.03;;;4.30;97.20;;;;;;1722911;28;20269;-86
2022/03/04 07:15:37;;;;;;;21.95;19.83;;;4.30;97.20;;;;;;1723083;28;20240;-86
2022/03/04 07:16:29;;;;;;;24.70;19.73;;;4.40;97.20;;;;;;1722472;28;20205;-86
2022/03/04 07:17:21;;;;;;;22.17;19.85;;;4.40;97.20;;;;;;1722525;28;20531;-86
2022/03/04 07:18:14;;;;;;;21.85;19.58;;;4.40;97.20;;;;;;1716221;28;20318;-86
2022/03/04 07:19:05;;;;;;;22.15;19.85;;;4.50;97.20;;;;;;1716026;28;20212;-86
2022/03/04 07:19:56;;;;;;;23.07;20.70;;;4.50;97.20;;;;;;1715528;28;20202;-86
2022/03/04 07:20:47;;;;;;;21.50;19.50;;;4.50;97.20;;;;;;1715888;28;20705;-86
2022/03/04 07:21:39;;;;;;;22.40;20.20;;;4.60;97.20;;;;;;1715715;28;20661;-86
2022/03/04 07:22:30;;;;;;;21.60;19.33;;;4.60;97.20;;;;;;1716383;28;20318;-86
2022/03/04 07:23:21;;;;;;;21.20;19.00;;;4.60;97.20;;;;;;1715826;28;20222;-86
2022/03/04 07:24:12;;;;;;;21.23;18.73;;;4.70;97.20;;;;;;1716290;28;20704;-86
2022/03/04 07:25:04;;;;;;;20.53;18.53;;;4.70;97.20;;;;;;1715673;28;20581;-86
2022/03/04 07:25:55;;;;;;;20.50;18.50;;;4.70;97.20;;;;;;1715984;28;20473;-86
2022/03/04 07:26:47;;;;;;;21.97;18.87;;;4.80;97.20;;;;;;1715642;28;20198;-86
2022/03/04 07:27:38;;;;;;;22.00;19.50;;;4.80;97.20;;;;;;1717207;28;20202;-86
2022/03/04 07:28:30;;;;;;;21.38;19.27;;;4.80;97.20;;;;;;1721750;28;20208;-86
2022/03/04 07:29:21;;;;;;;20.48;18.48;;;4.90;97.20;;;;;;1722830;28;20200;-86
2022/03/04 07:30:14;;;;;;;27.63;19.63;;;5.00;97.20;;;;;;1722373;28;20336;-86
2022/03/04 07:31:05;;;;;;;23.05;19.40;;;5.00;97.20;;;;;;1722936;28;20562;-86
2022/03/04 07:31:57;;;;;;;23.23;19.53;;;5.00;97.20;;;;;;1722190;28;20227;-86
2022/03/04 07:32:49;;;;;;;23.30;20.70;;;5.10;97.20;;;;;;1723007;28;20587;-86
2022/03/04 07:33:42;;;;;;;24.52;20.20;;;5.10;97.20;;;;;;1722450;28;20197;-86
2022/03/04 07:34:32;;;;;;;26.15;20.73;;;5.20;97.20;;;;;;1722981;28;20208;-86
2022/03/04 07:35:24;;;;;;;25.97;20.30;;;5.20;97.20;;;;;;1722663;28;20200;-86
2022/03/04 07:36:15;;;;;;;27.33;21.73;;;5.30;97.20;;;;;;1722484;28;20686;-86
2022/03/04 07:37:07;;;;;;;31.33;22.50;;;5.30;97.20;;;;;;1722408;28;20742;-86
2022/03/04 07:37:58;;;;;;;27.02;21.10;;;5.40;97.20;;;;;;1718803;28;20236;-86
2022/03/04 07:38:50;;;;;;;30.30;22.20;;;5.40;97.20;;;;;;1715140;28;20210;-86
2022/03/04 07:39:41;;;;;;;28.55;21.23;;;5.40;97.20;;;;;;1716230;28;20449;-86
2022/03/04 07:40:32;;;;;;;27.03;22.20;;;5.50;97.20;;;;;;1715464;28;20221;-86
2022/03/04 07:41:24;;;;;;;38.05;22.98;;;5.50;97.20;;;;;;1715726;28;20450;-86
2022/03/04 07:42:15;;;;;;;45.75;23.65;;;5.60;97.20;;;;;;1715420;28;20240;-86
2022/03/04 07:43:06;;;;;;;39.38;23.10;;;5.60;97.20;;;;;;1715981;28;20208;-86
2022/03/04 07:43:59;;;;;;;31.38;23.00;;;5.70;97.20;;;;;;1715637;28;20573;-86
2022/03/04 07:44:50;;;;;;;47.67;23.05;;;5.70;97.20;;;;;;1716099;28;20579;-86
2022/03/04 07:45:42;;;;;;;28.10;20.95;;;5.80;97.20;;;;;;1715689;28;20198;-86
2022/03/04 07:46:33;;;;;;;26.67;20.85;;;5.80;97.20;;;;;;1715888;28;20210;-86
2022/03/04 07:47:25;;;;;;;24.13;20.10;;;5.80;97.20;;;;;;1715440;28;20288;-86
2022/03/04 07:48:15;;;;;;;27.40;21.55;;;5.90;97.20;;;;;;1721157;28;20204;-86
2022/03/04 07:49:08;;;;;;;26.13;20.47;;;5.90;97.20;;;;;;1721796;28;20240;-86
2022/03/04 07:49:59;;;;;;;22.73;19.73;;;5.90;97.20;;;;;;1721873;28;20206;-86
2022/03/04 07:50:51;;;;;;;26.03;21.20;;;6.00;97.20;;;;;;1722002;28;20221;-86
2022/03/04 07:51:43;;;;;;;23.95;20.45;;;6.00;97.20;;;;;;1722296;28;20201;-86
2022/03/04 07:52:35;;;;;;;23.13;20.30;;;6.00;97.20;;;;;;1722049;28;20205;-86
2022/03/04 07:53:25;;;;;;;24.98;19.65;;;6.10;97.20;;;;;;1722197;28;20209;-86
2022/03/04 07:54:18;;;;;;;24.30;21.03;;;6.10;97.00;;;;;;1721697;28;20197;-86
2022/03/04 07:55:11;;;;;;;21.63;19.33;;;6.10;97.20;;;;;;1721878;28;20201;-86
2022/03/04 07:56:02;;;;;;;21.25;18.40;;;6.10;96.90;;;;;;1721953;28;20279;-86
2022/03/04 07:56:55;;;;;;;23.88;20.55;;;6.20;96.70;;;;;;1722325;28;20672;-86
2022/03/04 07:57:47;;;;;;;25.33;21.00;;;6.20;96.50;;;;;;1720007;28;20240;-87
2022/03/04 07:58:38;;;;;;;22.02;19.63;;;6.30;96.50;;;;;;1714902;28;20241;-86
2022/03/04 07:59:29;;;;;;;22.20;19.07;;;6.30;96.50;;;;;;1714908;28;20213;-87
2022/03/04 08:00:24;;;;;;;26.67;20.27;;;6.30;96.20;;;;;;1714809;28;20206;-87
2022/03/04 08:01:16;;;;;;;24.88;20.25;;;6.30;96.10;;;;;;1715000;28;20205;-87
2022/03/04 08:02:07;;;;;;;21.75;19.35;;;6.40;96.30;;;;;;1715096;28;20250;-87
2022/03/04 08:02:59;;;;;;;21.13;18.83;;;6.40;96.20;;;;;;1714859;28;20205;-87
2022/03/04 08:03:50;;;;;;;21.00;17.92;;;6.50;96.70;;;;;;1714776;28;20653;-87
2022/03/04 08:04:43;;;;;;;21.60;18.50;;;6.50;97.00;;;;;;1714734;28;20590;-87
2022/03/04 08:05:35;;;;;;;23.52;19.40;;;6.50;96.40;;;;;;1714905;28;20241;-86
2022/03/04 08:06:26;;;;;;;20.27;18.20;;;6.60;96.20;;;;;;1714885;28;20553;-87
2022/03/04 08:07:18;;;;;;;25.90;20.43;;;6.60;96.40;;;;;;1714507;28;20303;-87
2022/03/04 08:08:09;;;;;;;23.20;19.95;;;6.70;96.60;;;;;;1719000;28;20205;-87
2022/03/04 08:09:01;;;;;;;24.47;20.23;;;6.70;96.40;;;;;;1721121;28;20197;-87
2022/03/04 08:09:52;;;;;;;24.00;21.00;;;6.70;96.50;;;;;;1721448;28;20970;-87
2022/03/04 08:10:44;;;;;;;24.00;19.83;;;6.80;96.50;;;;;;1721354;28;20603;-87
2022/03/04 08:11:34;;;;;;;23.52;20.23;;;6.80;96.20;;;;;;1721743;28;20660;-87
2022/03/04 08:12:26;;;;;;;26.63;20.70;;;6.90;96.20;;;;;;1722125;28;20636;-87
2022/03/04 08:13:17;;;;;;;23.80;19.30;;;6.90;96.30;;;;;;1722925;28;20263;-87
2022/03/04 08:14:08;;;;;;;22.27;18.57;;;6.90;96.10;;;;;;1722721;28;20205;-87
2022/03/04 08:14:59;;;;;;;24.10;20.15;;;7.00;95.60;;;;;;1722709;28;20208;-87
2022/03/04 08:15:51;;;;;;;24.00;19.73;;;7.00;95.00;;;;;;1722789;28;20211;-87
2022/03/04 08:16:42;;;;;;;23.42;19.83;;;7.10;94.50;;;;;;1722776;28;20642;-87
2022/03/04 08:17:33;;;;;;;25.97;19.70;;;7.10;94.70;;;;;;1722504;28;20247;-87
2022/03/04 08:18:24;;;;;;;26.17;19.98;;;7.10;95.00;;;;;;1715891;28;20595;-87
2022/03/04 08:19:16;;;;;;;23.27;19.87;;;7.20;94.70;;;;;;1716020;28;20210;-87
2022/03/04 08:20:10;;;;;;;26.00;18.95;;;7.20;94.60;;;;;;1716289;28;20704;-87
2022/03/04 08:21:03;;;;;;;24.17;19.35;;;7.20;94.60;;;;;;1716241;28;20213;-87
2022/03/04 08:21:53;;;;;;;24.77;19.52;;;7.30;94.60;;;;;;1716069;28;20755;-87
2022/03/04 08:22:45;;;;;;;22.70;18.90;;;7.30;94.50;;;;;;1715848;28;20624;-87
2022/03/04 08:23:36;;;;;;;22.40;18.98;;;7.30;94.40;;;;;;1716043;28;20241;-87
2022/03/04 08:24:27;;;;;;;22.23;19.23;;;7.40;94.10;;;;;;1716188;28;20201;-87
2022/03/04 08:25:19;;;;;;;23.63;18.75;;;7.40;94.40;;;;;;1716027;28;20648;-87
2022/03/04 08:26:10;;;;;;;24.58;19.50;;;7.50;94.40;;;;;;1716168;28;20700;-87
2022/03/04 08:27:02;;;;;;;24.33;20.00;;;7.50;94.40;;;;;;1715925;28;20676;-86
2022/03/04 08:27:53;;;;;;;19.88;17.83;;;7.50;94.20;;;;;;1717580;28;20665;-87
2022/03/04 08:28:44;;;;;;;22.63;20.33;;;7.60;93.60;;;;;;1722226;28;20612;-87
2022/03/04 08:29:35;;;;;;;22.17;19.10;;;7.60;93.30;;;;;;1722323;28;20687;-87
2022/03/04 08:30:27;;;;;;;21.27;18.97;;;7.60;92.70;;;;;;1715888;28;20630;-87
2022/03/04 08:31:17;;;;;;;20.77;18.58;;;7.70;92.20;;;;;;1715976;28;20666;-87
2022/03/04 08:32:09;;;;;;;24.83;19.80;;;7.70;92.90;;;;;;1715829;28;20669;-87
2022/03/04 08:33:01;;;;;;;21.85;19.50;;;7.70;93.30;;;;;;1715908;28;20209;-86
2022/03/04 08:33:52;;;;;;;23.23;19.90;;;7.70;93.00;;;;;;1715783;28;20241;-87
2022/03/04 08:34:44;;;;;;;22.00;19.70;;;7.80;92.40;;;;;;1715466;28;20205;-87
2022/03/04 08:35:36;;;;;;;21.83;19.52;;;7.80;92.30;;;;;;1715864;28;20236;-87
2022/03/04 08:36:27;;;;;;;23.45;19.50;;;7.80;92.20;;;;;;1715708;28;20689;-87
2022/03/04 08:37:18;;;;;;;21.45;18.90;;;7.90;92.50;;;;;;1716132;28;20638;-87
2022/03/04 08:38:10;;;;;;;24.43;20.83;;;7.90;92.70;;;;;;1719028;28;20221;-86
2022/03/04 08:39:03;;;;;;;26.13;19.17;;;7.90;92.90;;;;;;1722445;28;20329;-87
2022/03/04 08:39:54;;;;;;;26.15;19.63;;;8.00;92.80;;;;;;1722111;28;20238;-87
2022/03/04 08:40:46;;;;;;;25.33;19.30;;;8.00;92.20;;;;;;1722265;28;20256;-87
2022/03/04 08:41:38;;;;;;;24.15;20.05;;;8.10;92.30;;;;;;1722446;28;20684;-87
2022/03/04 08:42:29;;;;;;;22.33;19.90;;;8.10;92.30;;;;;;1722169;28;20244;-87
2022/03/04 08:43:21;;;;;;;26.57;20.57;;;8.20;92.10;;;;;;1722207;28;20201;-87
2022/03/04 08:44:12;;;;;;;22.67;19.83;;;8.20;92.10;;;;;;1722442;28;20212;-87
2022/03/04 08:45:04;;;;;;;23.50;20.50;;;8.20;92.00;;;;;;1722141;28;20204;-87
2022/03/04 08:45:55;;;;;;;23.58;20.67;;;8.30;92.10;;;;;;1722360;28;20236;-87
2022/03/04 08:46:47;;;;;;;22.10;19.70;;;8.30;92.30;;;;;;1722248;28;20213;-87
2022/03/04 08:47:38;;;;;;;22.35;19.85;;;8.40;92.10;;;;;;1722574;28;20216;-87
2022/03/04 08:48:30;;;;;;;26.60;20.55;;;8.40;92.00;;;;;;1715725;28;20202;-87
2022/03/04 08:49:22;;;;;;;23.02;19.33;;;8.50;91.90;;;;;;1715892;28;20595;-87
2022/03/04 08:50:15;;;;;;;23.00;20.50;;;8.50;91.90;;;;;;1715756;28;20206;-87
2022/03/04 08:51:08;;;;;;;27.65;20.58;;;8.60;91.60;;;;;;1715841;28;20198;-87
2022/03/04 08:51:59;;;;;;;23.48;20.15;;;8.60;91.50;;;;;;1715805;28;20630;-87
2022/03/04 08:52:51;;;;;;;22.77;19.50;;;8.60;91.40;;;;;;1715751;28;20206;-87
2022/03/04 08:53:42;;;;;;;26.98;20.80;;;8.70;91.50;;;;;;1715878;28;20233;-87
2022/03/04 08:54:34;;;;;;;23.20;20.67;;;8.70;91.80;;;;;;1715539;28;20216;-87
2022/03/04 08:55:25;;;;;;;22.73;20.15;;;8.80;91.50;;;;;;1715677;28;20206;-87
2022/03/04 08:56:16;;;;;;;25.70;21.00;;;8.80;91.10;;;;;;1715838;28;20208;-87
2022/03/04 08:57:07;;;;;;;24.35;20.17;;;8.80;91.00;;;;;;1715772;28;20453;-87
2022/03/04 08:58:00;;;;;;;28.00;21.23;;;8.90;91.20;;;;;;1717050;28;20229;-87
2022/03/04 08:58:51;;;;;;;24.38;19.92;;;8.90;91.00;;;;;;1722314;28;20487;-87
2022/03/04 08:59:43;;;;;;;28.23;20.67;;;9.00;90.70;;;;;;1722262;28;20201;-87
2022/03/04 09:00:33;;;;;;;28.23;19.92;;;9.10;90.60;;;;;;1722513;28;20612;-87
2022/03/04 09:01:25;;;;;;;35.37;22.00;;;9.10;90.70;;;;;;1722122;28;20569;-87
2022/03/04 09:02:16;;;;;;;34.08;22.15;;;9.20;90.70;;;;;;1722327;28;20220;-87
2022/03/04 09:03:08;;;;;;;32.10;20.40;;;9.20;90.90;;;;;;1722187;28;20223;-87
2022/03/04 09:03:59;;;;;;;30.40;21.35;;;9.30;90.90;;;;;;1722364;28;20205;-87
2022/03/04 09:04:51;;;;;;;27.97;21.93;;;9.30;90.60;;;;;;1722147;28;20212;-87
2022/03/04 09:05:42;;;;;;;36.08;20.83;;;9.40;90.70;;;;;;1722322;28;20205;-86
2022/03/04 09:06:35;;;;;;;25.30;20.43;;;9.50;90.50;;;;;;1722143;28;20205;-87
2022/03/04 09:07:25;;;;;;;24.02;20.63;;;9.60;90.20;;;;;;1722484;28;20967;-87
2022/03/04 09:08:17;;;;;;;32.83;20.20;;;9.70;90.00;;;;;;1720921;28;20601;-87
2022/03/04 09:09:08;;;;;;;28.48;20.27;;;9.90;90.00;;;;;;1722248;28;20214;-87
2022/03/04 09:10:00;;;;;;;30.13;19.97;;;10.00;89.80;;;;;;1721832;28;20215;-87
2022/03/04 09:10:50;;;;;;;22.10;19.65;;;10.20;89.30;;;;;;1722527;28;20276;-87
2022/03/04 09:11:42;;;;;;;24.70;19.30;;;10.30;89.10;;;;;;1723142;28;20205;-86
2022/03/04 09:12:33;;;;;;;26.80;20.13;;;10.40;89.10;;;;;;1723158;28;20212;-87
2022/03/04 09:13:25;;;;;;;24.57;19.57;;;10.60;88.80;;;;;;1721963;28;20205;-86
2022/03/04 09:14:16;;;;;;;26.05;20.58;;;10.70;88.60;;;;;;1722567;28;20212;-87
2022/03/04 09:15:09;;;;;;;26.67;19.20;;;10.90;88.30;;;;;;1722189;28;20204;-87
2022/03/04 09:16:00;;;;;;;22.67;19.73;;;11.00;87.80;;;;;;1722389;28;20219;-87
2022/03/04 09:16:52;;;;;;;23.60;20.30;;;11.10;87.50;;;;;;1722609;28;20288;-87
2022/03/04 09:17:43;;;;;;;24.40;20.17;;;11.30;87.20;;;;;;1722216;28;20216;-87
2022/03/04 09:18:34;;;;;;;23.30;19.70;;;11.40;87.20;;;;;;1721479;28;20207;-86
2022/03/04 09:19:27;;;;;;;23.02;20.45;;;11.50;86.90;;;;;;1722119;28;20525;-87
2022/03/04 09:20:19;;;;;;;27.08;21.77;;;11.60;87.00;;;;;;1722236;28;20209;-86
2022/03/04 09:21:11;;;;;;;25.13;20.73;;;11.80;86.60;;;;;;1722440;28;20212;-87
2022/03/04 09:22:04;;;;;;;26.65;21.85;;;11.90;86.30;;;;;;1722154;28;20336;-86
2022/03/04 09:22:56;;;;;;;23.30;19.95;;;12.10;86.10;;;;;;1721868;28;20212;-87
2022/03/04 09:23:47;;;;;;;24.88;19.77;;;12.30;85.90;;;;;;1722113;28;20227;-86
2022/03/04 09:24:38;;;;;;;23.92;20.45;;;12.40;85.70;;;;;;1722296;28;20263;-87
2022/03/04 09:25:30;;;;;;;25.90;20.87;;;12.50;85.40;;;;;;1722181;28;20299;-87
2022/03/04 09:26:22;;;;;;;22.98;20.52;;;12.70;85.20;;;;;;1720672;28;20209;-86
2022/03/04 09:27:13;;;;;;;24.10;21.00;;;12.90;84.90;;;;;;1715399;28;20598;-87
2022/03/04 09:28:05;;;;;;;26.23;20.63;;;13.00;84.40;;;;;;1715391;28;20285;-86
2022/03/04 09:28:56;;;;;;;23.52;20.70;;;13.20;84.10;;;;;;1715610;28;20213;-87
2022/03/04 09:29:47;;;;;;;22.53;20.20;;;13.30;83.60;;;;;;1715445;28;20314;-87
2022/03/04 09:30:38;;;;;;;27.17;21.10;;;13.40;83.20;;;;;;1715547;28;20505;-86
2022/03/04 09:31:30;;;;;;;23.70;21.20;;;13.60;82.50;;;;;;1715685;28;20208;-86
2022/03/04 09:32:21;;;;;;;25.40;19.70;;;13.70;82.30;;;;;;1715665;28;20449;-87
2022/03/04 09:33:12;;;;;;;26.00;20.63;;;13.80;81.60;;;;;;1715231;28;20725;-87
2022/03/04 09:34:03;;;;;;;30.60;21.33;;;13.90;81.00;;;;;;1715391;28;20209;-87
2022/03/04 09:34:55;;;;;;;30.00;21.97;;;14.00;80.70;;;;;;1715222;28;20245;-87
2022/03/04 09:35:45;;;;;;;31.67;20.83;;;14.10;80.80;;;;;;1715504;28;20210;-86
2022/03/04 09:36:37;;;;;;;25.37;21.10;;;14.20;80.90;;;;;;1718358;28;20276;-87
2022/03/04 09:37:29;;;;;;;28.75;21.77;;;14.30;80.50;;;;;;1722162;28;20243;-87
2022/03/04 09:38:21;;;;;;;29.35;21.23;;;14.40;80.50;;;;;;1721607;28;20375;-86
2022/03/04 09:39:12;;;;;;;27.13;21.23;;;14.60;80.60;;;;;;1721964;28;20271;-86
2022/03/04 09:40:05;;;;;;;24.70;20.97;;;14.70;79.80;;;;;;1722029;28;20725;-87
2022/03/04 09:40:56;;;;;;;22.85;20.45;;;14.90;79.40;;;;;;1722161;28;20233;-87
2022/03/04 09:41:48;;;;;;;31.60;22.08;;;15.00;78.50;;;;;;1722057;28;20209;-87
2022/03/04 09:42:40;;;;;;;29.55;22.60;;;15.10;78.10;;;;;;1722383;28;20209;-86
2022/03/04 09:43:33;;;;;;;28.33;21.23;;;15.30;77.50;;;;;;1722078;28;20255;-87
2022/03/04 09:44:23;;;;;;;25.05;21.67;;;15.40;77.40;;;;;;1722129;28;20205;-87
2022/03/04 09:45:15;;;;;;;27.20;21.20;;;15.50;76.80;;;;;;1722094;28;20287;-87
2022/03/04 09:46:06;;;;;;;28.50;20.60;;;15.60;76.20;;;;;;1722365;28;20212;-87
2022/03/04 09:47:01;;;;;;;24.30;21.73;;;15.70;76.00;;;;;;1715843;28;20200;-86
2022/03/04 09:47:52;;;;;;;22.67;20.38;;;15.80;75.80;;;;;;1715636;28;20806;-86
2022/03/04 09:48:44;;;;;;;22.87;20.40;;;15.90;75.30;;;;;;1715058;28;20305;-86
2022/03/04 09:49:36;;;;;;;23.65;21.15;;;16.00;75.40;;;;;;1715522;28;20201;-87
2022/03/04 09:50:29;;;;;;;26.08;20.92;;;16.10;75.00;;;;;;1715718;28;20247;-87
2022/03/04 09:51:20;;;;;;;24.30;21.73;;;16.20;74.10;;;;;;1715589;28;20214;-87
2022/03/04 09:52:12;;;;;;;22.70;19.70;;;16.30;74.10;;;;;;1715027;28;20209;-87
2022/03/04 09:53:11;;;;;;;23.17;20.85;;;16.40;74.40;;;;;;1715701;28;20210;-87
2022/03/04 09:54:03;;;;;;;23.38;20.80;;;16.50;74.10;;;;;;1715438;28;20580;-87
2022/03/04 09:54:54;;;;;;;23.48;21.00;;;16.60;73.50;;;;;;1715231;28;20235;-87
2022/03/04 09:55:46;;;;;;;24.50;22.00;;;16.80;73.00;;;;;;1715337;28;20202;-86
2022/03/04 09:56:38;;;;;;;22.60;20.27;;;16.80;72.60;;;;;;1718575;28;20193;-86
2022/03/04 09:57:29;;;;;;;24.20;19.85;;;16.90;73.50;;;;;;1722426;28;20841;-87
2022/03/04 09:58:20;;;;;;;22.30;20.08;;;17.00;75.10;;;;;;1721759;28;20581;-86
2022/03/04 09:59:13;;;;;;;22.80;20.60;;;17.10;76.10;;;;;;1722074;28;20227;-86
2022/03/04 10:00:04;;;;;;;22.85;20.42;;;17.20;75.70;;;;;;1722393;28;20292;-87
2022/03/04 10:00:56;;;;;;;21.90;19.50;;;17.30;75.20;;;;;;1721741;28;20723;-87
2022/03/04 10:01:47;;;;;;;23.45;21.13;;;17.50;75.10;;;;;;1722244;28;20232;-87
2022/03/04 10:02:39;;;;;;;23.88;21.35;;;17.60;74.50;;;;;;1721908;28;20683;-87
2022/03/04 10:03:45;;;;;;;21.95;19.80;;;17.70;73.90;;;;;;1722015;28;20200;-87
2022/03/04 10:04:38;;;;;;;22.17;19.95;;;17.80;72.60;;;;;;1721913;28;20218;-87
2022/03/04 10:05:30;;;;;;;23.35;21.15;;;17.90;72.60;;;;;;1721825;28;20244;-87
2022/03/04 10:06:22;;;;;;;24.38;21.88;;;18.00;72.40;;;;;;1720677;28;20259;-87
2022/03/04 10:07:18;;;;;;;23.80;21.40;;;18.00;72.10;;;;;;1714909;28;20225;-87
2022/03/04 10:08:18;;;;;;;23.23;20.80;;;18.10;71.50;;;;;;1714833;28;20214;-86
2022/03/04 10:09:09;;;;;;;21.52;19.45;;;18.20;71.50;;;;;;1714979;28;20206;-87
2022/03/04 10:10:02;;;;;;;23.65;21.45;;;18.20;71.50;;;;;;1715072;28;20206;-87
2022/03/04 10:10:55;;;;;;;22.92;20.73;;;18.30;71.50;;;;;;1714900;28;20218;-87
2022/03/04 10:11:45;;;;;;;24.30;21.80;;;18.30;71.10;;;;;;1715269;28;20245;-87
2022/03/04 10:12:47;;;;;;;23.93;21.57;;;18.40;70.90;;;;;;1715133;28;20209;-87
2022/03/04 10:13:43;;;;;;;23.38;21.00;;;18.40;70.30;;;;;;1714975;28;20205;-87
2022/03/04 10:14:42;;;;;;;22.45;20.27;;;18.40;70.00;;;;;;1714910;28;20209;-86
2022/03/04 10:15:34;;;;;;;23.98;21.48;;;18.50;70.00;;;;;;1714928;28;20640;-87
2022/03/04 10:16:27;;;;;;;23.98;21.48;;;18.50;69.90;;;;;;1715569;28;20260;-87
2022/03/04 10:17:19;;;;;;;23.88;21.50;;;18.50;69.60;;;;;;1716097;28;20197;-87
2022/03/04 10:18:10;;;;;;;23.67;21.27;;;18.60;68.90;;;;;;1714779;28;20210;-86
2022/03/04 10:19:11;;;;;;;23.20;21.10;;;18.60;68.40;;;;;;1715011;28;20285;-87
2022/03/04 10:20:04;;;;;;;22.50;20.40;;;18.70;68.30;;;;;;1715224;28;20573;-87
2022/03/04 10:20:56;;;;;;;23.70;21.30;;;18.70;67.50;;;;;;1715017;28;20218;-87
2022/03/04 10:21:49;;;;;;;24.80;22.05;;;18.70;67.60;;;;;;1715418;28;20202;-87
2022/03/04 10:22:45;;;;;;;23.85;21.55;;;18.80;67.50;;;;;;1715100;28;20229;-87
2022/03/04 10:23:38;;;;;;;22.20;20.05;;;18.80;67.50;;;;;;1715069;28;20210;-87
2022/03/04 10:24:31;;;;;;;24.30;21.83;;;18.80;67.30;;;;;;1714824;28;20555;-87
2022/03/04 10:25:26;;;;;;;22.77;20.60;;;18.90;67.10;;;;;;1714988;28;20285;-87
2022/03/04 10:26:16;;;;;;;24.35;22.10;;;18.90;66.70;;;;;;1714711;28;20206;-87